Terminal Aerodrome Forecast
Issued by NWS Buffalo, NY

Home | Current Version | Previous Version | Text Only | Print | Product List | Glossary On
Versions: 1 2 3 4 5 6 7 8 9 10 11 12 13 14 15 16 17 18 19 20 21 22 23 24 25 26
000
FTUS41 KBUF 250541
TAFART
TAF
KART 250541Z 2506/2606 VRB03KT P6SM SCT250
     FM251300 20006KT P6SM VCTS BKN060CB
     FM251800 23012KT P6SM VCSH BKN040
     FM252100 23012KT P6SM SCT060
     FM260200 26007KT P6SM SKC=

USA.gov is the U.S. government's official web portal to all federal, state and local government web resources and services.